sensor_id;sensor_type;location;lat;lon;timestamp;P1;durP1;ratioP1;P2;durP2;ratioP2
31310;SDS011;17937;51.508;7.534;2022-11-15T00:02:10;17.08;;;9.20;;
31310;SDS011;17937;51.508;7.534;2022-11-15T00:04:35;14.30;;;8.75;;
31310;SDS011;17937;51.508;7.534;2022-11-15T00:07:01;13.65;;;8.38;;
31310;SDS011;17937;51.508;7.534;2022-11-15T00:09:26;13.95;;;8.98;;
31310;SDS011;17937;51.508;7.534;2022-11-15T00:11:52;18.92;;;8.90;;
31310;SDS011;17937;51.508;7.534;2022-11-15T00:14:17;14.32;;;8.43;;
31310;SDS011;17937;51.508;7.534;2022-11-15T00:16:43;14.82;;;9.13;;
31310;SDS011;17937;51.508;7.534;2022-11-15T00:19:08;13.85;;;9.15;;
31310;SDS011;17937;51.508;7.534;2022-11-15T00:21:34;16.88;;;8.85;;
31310;SDS011;17937;51.508;7.534;2022-11-15T00:24:00;13.45;;;8.38;;
31310;SDS011;17937;51.508;7.534;2022-11-15T00:26:25;16.02;;;8.00;;
31310;SDS011;17937;51.508;7.534;2022-11-15T00:28:51;14.52;;;8.70;;
31310;SDS011;17937;51.508;7.534;2022-11-15T00:31:17;14.57;;;8.40;;
31310;SDS011;17937;51.508;7.534;2022-11-15T00:33:43;17.92;;;8.23;;
31310;SDS011;17937;51.508;7.534;2022-11-15T00:36:09;19.52;;;8.52;;
31310;SDS011;17937;51.508;7.534;2022-11-15T00:38:36;18.15;;;8.45;;
31310;SDS011;17937;51.508;7.534;2022-11-15T00:41:03;12.80;;;8.75;;
31310;SDS011;17937;51.508;7.534;2022-11-15T00:43:30;19.25;;;9.23;;
31310;SDS011;17937;51.508;7.534;2022-11-15T00:45:56;13.07;;;8.68;;
31310;SDS011;17937;51.508;7.534;2022-11-15T00:48:22;17.85;;;8.55;;
31310;SDS011;17937;51.508;7.534;2022-11-15T00:50:48;20.45;;;9.20;;
31310;SDS011;17937;51.508;7.534;2022-11-15T00:53:14;16.30;;;8.70;;
31310;SDS011;17937;51.508;7.534;2022-11-15T00:55:39;21.67;;;8.63;;
31310;SDS011;17937;51.508;7.534;2022-11-15T00:58:05;17.15;;;9.13;;
31310;SDS011;17937;51.508;7.534;2022-11-15T01:00:30;20.98;;;9.02;;
31310;SDS011;17937;51.508;7.534;2022-11-15T01:02:56;14.93;;;8.68;;
31310;SDS011;17937;51.508;7.534;2022-11-15T01:05:22;16.08;;;8.52;;
31310;SDS011;17937;51.508;7.534;2022-11-15T01:07:51;17.25;;;9.80;;
31310;SDS011;17937;51.508;7.534;2022-11-15T01:10:17;17.65;;;8.82;;
31310;SDS011;17937;51.508;7.534;2022-11-15T01:12:43;19.27;;;9.20;;
31310;SDS011;17937;51.508;7.534;2022-11-15T01:15:09;15.95;;;8.57;;
31310;SDS011;17937;51.508;7.534;2022-11-15T01:17:35;17.58;;;9.57;;
31310;SDS011;17937;51.508;7.534;2022-11-15T01:20:00;11.90;;;7.97;;
31310;SDS011;17937;51.508;7.534;2022-11-15T01:22:26;14.57;;;8.57;;
31310;SDS011;17937;51.508;7.534;2022-11-15T01:24:51;18.70;;;9.00;;
31310;SDS011;17937;51.508;7.534;2022-11-15T01:27:17;18.58;;;8.85;;
31310;SDS011;17937;51.508;7.534;2022-11-15T01:29:43;13.45;;;8.35;;
31310;SDS011;17937;51.508;7.534;2022-11-15T01:32:08;14.60;;;8.95;;
31310;SDS011;17937;51.508;7.534;2022-11-15T01:34:34;15.02;;;7.93;;
31310;SDS011;17937;51.508;7.534;2022-11-15T01:37:00;17.35;;;8.68;;
31310;SDS011;17937;51.508;7.534;2022-11-15T01:39:25;15.82;;;8.93;;
31310;SDS011;17937;51.508;7.534;2022-11-15T01:41:51;14.07;;;8.60;;
31310;SDS011;17937;51.508;7.534;2022-11-15T01:50:08;12.15;;;8.32;;
31310;SDS011;17937;51.508;7.534;2022-11-15T01:52:41;16.98;;;8.68;;
31310;SDS011;17937;51.508;7.534;2022-11-15T01:55:09;12.13;;;8.45;;
31310;SDS011;17937;51.508;7.534;2022-11-15T01:57:35;15.10;;;8.43;;
31310;SDS011;17937;51.508;7.534;2022-11-15T02:00:03;16.33;;;8.77;;
31310;SDS011;17937;51.508;7.534;2022-11-15T02:02:30;15.27;;;8.85;;
31310;SDS011;17937;51.508;7.534;2022-11-15T02:04:56;15.25;;;8.70;;
31310;SDS011;17937;51.508;7.534;2022-11-15T02:07:21;16.55;;;8.80;;
31310;SDS011;17937;51.508;7.534;2022-11-15T02:09:47;17.48;;;9.95;;
31310;SDS011;17937;51.508;7.534;2022-11-15T02:12:15;15.50;;;8.90;;
31310;SDS011;17937;51.508;7.534;2022-11-15T02:14:45;15.85;;;8.48;;
31310;SDS011;17937;51.508;7.534;2022-11-15T02:20:12;16.23;;;9.00;;
31310;SDS011;17937;51.508;7.534;2022-11-15T02:28:30;13.57;;;8.23;;
31310;SDS011;17937;51.508;7.534;2022-11-15T02:31:14;14.75;;;8.48;;
31310;SDS011;17937;51.508;7.534;2022-11-15T02:36:40;14.95;;;8.93;;
31310;SDS011;17937;51.508;7.534;2022-11-15T02:39:23;18.23;;;9.77;;
31310;SDS011;17937;51.508;7.534;2022-11-15T02:42:11;19.27;;;9.20;;
31310;SDS011;17937;51.508;7.534;2022-11-15T02:45:02;16.05;;;9.50;;
31310;SDS011;17937;51.508;7.534;2022-11-15T02:47:30;18.63;;;9.80;;
31310;SDS011;17937;51.508;7.534;2022-11-15T02:50:07;14.88;;;9.23;;
31310;SDS011;17937;51.508;7.534;2022-11-15T02:52:36;13.18;;;8.77;;
31310;SDS011;17937;51.508;7.534;2022-11-15T02:55:01;15.82;;;9.05;;
31310;SDS011;17937;51.508;7.534;2022-11-15T03:00:33;16.55;;;9.38;;
31310;SDS011;17937;51.508;7.534;2022-11-15T03:03:48;15.63;;;9.68;;
31310;SDS011;17937;51.508;7.534;2022-11-15T03:05:53;15.38;;;9.88;;
31310;SDS011;17937;51.508;7.534;2022-11-15T03:11:46;15.20;;;9.07;;
31310;SDS011;17937;51.508;7.534;2022-11-15T03:19:41;15.02;;;9.30;;
31310;SDS011;17937;51.508;7.534;2022-11-15T03:22:16;16.55;;;9.65;;
31310;SDS011;17937;51.508;7.534;2022-11-15T03:24:45;18.27;;;9.43;;
31310;SDS011;17937;51.508;7.534;2022-11-15T03:27:15;15.25;;;10.02;;
31310;SDS011;17937;51.508;7.534;2022-11-15T03:29:46;14.27;;;8.85;;
31310;SDS011;17937;51.508;7.534;2022-11-15T03:32:20;17.05;;;8.98;;
31310;SDS011;17937;51.508;7.534;2022-11-15T03:34:55;16.30;;;8.93;;
31310;SDS011;17937;51.508;7.534;2022-11-15T03:37:31;13.55;;;8.52;;
31310;SDS011;17937;51.508;7.534;2022-11-15T03:40:21;19.73;;;9.15;;
31310;SDS011;17937;51.508;7.534;2022-11-15T03:46:01;15.43;;;8.95;;
31310;SDS011;17937;51.508;7.534;2022-11-15T03:48:33;13.00;;;8.07;;
31310;SDS011;17937;51.508;7.534;2022-11-15T03:51:02;18.08;;;7.82;;
31310;SDS011;17937;51.508;7.534;2022-11-15T03:53:29;12.45;;;7.55;;
31310;SDS011;17937;51.508;7.534;2022-11-15T03:55:56;13.77;;;7.78;;
31310;SDS011;17937;51.508;7.534;2022-11-15T03:58:22;13.07;;;7.85;;
31310;SDS011;17937;51.508;7.534;2022-11-15T04:00:47;15.45;;;7.70;;
31310;SDS011;17937;51.508;7.534;2022-11-15T04:03:13;14.38;;;7.25;;
31310;SDS011;17937;51.508;7.534;2022-11-15T04:05:38;13.10;;;7.32;;
31310;SDS011;17937;51.508;7.534;2022-11-15T04:08:04;12.30;;;7.10;;
31310;SDS011;17937;51.508;7.534;2022-11-15T04:10:30;13.98;;;7.53;;
31310;SDS011;17937;51.508;7.534;2022-11-15T04:12:55;13.95;;;7.88;;
31310;SDS011;17937;51.508;7.534;2022-11-15T04:15:21;10.00;;;6.47;;
31310;SDS011;17937;51.508;7.534;2022-11-15T04:17:52;9.32;;;6.82;;
31310;SDS011;17937;51.508;7.534;2022-11-15T04:20:20;11.02;;;7.13;;
31310;SDS011;17937;51.508;7.534;2022-11-15T04:23:07;13.35;;;7.13;;
31310;SDS011;17937;51.508;7.534;2022-11-15T04:26:01;12.13;;;7.30;;
31310;SDS011;17937;51.508;7.534;2022-11-15T04:28:32;10.38;;;6.75;;
31310;SDS011;17937;51.508;7.534;2022-11-15T04:30:58;13.43;;;7.15;;
31310;SDS011;17937;51.508;7.534;2022-11-15T04:33:24;12.73;;;6.88;;
31310;SDS011;17937;51.508;7.534;2022-11-15T04:35:50;11.25;;;6.97;;
31310;SDS011;17937;51.508;7.534;2022-11-15T04:38:34;11.52;;;7.82;;
31310;SDS011;17937;51.508;7.534;2022-11-15T04:41:01;14.38;;;7.97;;
31310;SDS011;17937;51.508;7.534;2022-11-15T04:43:27;11.75;;;7.30;;
31310;SDS011;17937;51.508;7.534;2022-11-15T04:45:53;9.30;;;7.32;;
31310;SDS011;17937;51.508;7.534;2022-11-15T04:48:18;16.70;;;8.48;;
31310;SDS011;17937;51.508;7.534;2022-11-15T04:50:44;12.75;;;7.75;;
31310;SDS011;17937;51.508;7.534;2022-11-15T04:53:09;11.45;;;7.53;;
31310;SDS011;17937;51.508;7.534;2022-11-15T04:55:35;13.82;;;7.88;;
31310;SDS011;17937;51.508;7.534;2022-11-15T04:58:01;9.05;;;7.00;;
31310;SDS011;17937;51.508;7.534;2022-11-15T05:00:27;11.15;;;7.65;;
31310;SDS011;17937;51.508;7.534;2022-11-15T05:02:54;13.82;;;8.18;;
31310;SDS011;17937;51.508;7.534;2022-11-15T05:05:39;10.43;;;7.57;;
31310;SDS011;17937;51.508;7.534;2022-11-15T05:08:05;13.85;;;7.57;;
31310;SDS011;17937;51.508;7.534;2022-11-15T05:10:31;12.27;;;7.50;;
31310;SDS011;17937;51.508;7.534;2022-11-15T05:12:56;12.18;;;7.30;;
31310;SDS011;17937;51.508;7.534;2022-11-15T05:15:22;10.55;;;8.00;;
31310;SDS011;17937;51.508;7.534;2022-11-15T05:17:47;11.07;;;7.28;;
31310;SDS011;17937;51.508;7.534;2022-11-15T05:20:13;11.25;;;7.50;;
31310;SDS011;17937;51.508;7.534;2022-11-15T05:22:39;11.85;;;7.30;;
31310;SDS011;17937;51.508;7.534;2022-11-15T05:25:05;9.68;;;6.95;;
31310;SDS011;17937;51.508;7.534;2022-11-15T05:27:31;13.18;;;7.40;;
31310;SDS011;17937;51.508;7.534;2022-11-15T05:29:57;11.20;;;6.80;;
31310;SDS011;17937;51.508;7.534;2022-11-15T05:32:23;12.18;;;7.43;;
31310;SDS011;17937;51.508;7.534;2022-11-15T05:34:49;9.80;;;7.15;;
31310;SDS011;17937;51.508;7.534;2022-11-15T05:37:15;8.80;;;7.00;;
31310;SDS011;17937;51.508;7.534;2022-11-15T05:39:41;9.20;;;6.97;;
31310;SDS011;17937;51.508;7.534;2022-11-15T05:42:11;12.02;;;7.65;;
31310;SDS011;17937;51.508;7.534;2022-11-15T05:44:38;13.30;;;8.20;;
31310;SDS011;17937;51.508;7.534;2022-11-15T05:47:08;11.75;;;7.43;;
31310;SDS011;17937;51.508;7.534;2022-11-15T05:49:37;10.43;;;7.28;;
31310;SDS011;17937;51.508;7.534;2022-11-15T05:52:05;13.75;;;7.00;;
31310;SDS011;17937;51.508;7.534;2022-11-15T05:54:35;10.90;;;6.60;;
31310;SDS011;17937;51.508;7.534;2022-11-15T05:57:02;13.30;;;7.00;;
31310;SDS011;17937;51.508;7.534;2022-11-15T05:59:29;10.77;;;6.47;;
31310;SDS011;17937;51.508;7.534;2022-11-15T06:01:56;10.02;;;6.70;;
31310;SDS011;17937;51.508;7.534;2022-11-15T06:04:22;9.75;;;5.55;;
31310;SDS011;17937;51.508;7.534;2022-11-15T06:06:47;8.98;;;6.35;;
31310;SDS011;17937;51.508;7.534;2022-11-15T06:09:13;11.70;;;6.38;;
31310;SDS011;17937;51.508;7.534;2022-11-15T06:11:39;8.52;;;5.80;;
31310;SDS011;17937;51.508;7.534;2022-11-15T06:14:04;9.98;;;6.15;;
31310;SDS011;17937;51.508;7.534;2022-11-15T06:16:30;8.32;;;6.13;;
31310;SDS011;17937;51.508;7.534;2022-11-15T06:18:55;12.85;;;6.90;;
31310;SDS011;17937;51.508;7.534;2022-11-15T06:21:21;15.43;;;6.57;;
31310;SDS011;17937;51.508;7.534;2022-11-15T06:23:47;9.73;;;6.18;;
31310;SDS011;17937;51.508;7.534;2022-11-15T06:26:12;9.82;;;6.05;;
31310;SDS011;17937;51.508;7.534;2022-11-15T06:28:38;8.38;;;5.80;;
31310;SDS011;17937;51.508;7.534;2022-11-15T06:31:04;8.05;;;5.53;;
31310;SDS011;17937;51.508;7.534;2022-11-15T06:33:31;10.63;;;5.75;;
31310;SDS011;17937;51.508;7.534;2022-11-15T06:36:04;9.40;;;5.22;;
31310;SDS011;17937;51.508;7.534;2022-11-15T06:38:31;8.88;;;5.47;;
31310;SDS011;17937;51.508;7.534;2022-11-15T06:41:04;6.22;;;5.05;;
31310;SDS011;17937;51.508;7.534;2022-11-15T06:43:31;8.68;;;5.80;;
31310;SDS011;17937;51.508;7.534;2022-11-15T06:46:01;7.38;;;5.03;;
31310;SDS011;17937;51.508;7.534;2022-11-15T06:48:27;7.55;;;5.45;;
31310;SDS011;17937;51.508;7.534;2022-11-15T06:50:55;8.50;;;4.90;;
31310;SDS011;17937;51.508;7.534;2022-11-15T06:53:22;7.30;;;4.90;;
31310;SDS011;17937;51.508;7.534;2022-11-15T06:55:48;11.00;;;4.90;;
31310;SDS011;17937;51.508;7.534;2022-11-15T06:58:13;7.68;;;4.88;;
31310;SDS011;17937;51.508;7.534;2022-11-15T07:00:39;7.55;;;3.92;;
31310;SDS011;17937;51.508;7.534;2022-11-15T07:03:05;10.07;;;4.82;;
31310;SDS011;17937;51.508;7.534;2022-11-15T07:05:31;5.75;;;4.10;;
31310;SDS011;17937;51.508;7.534;2022-11-15T07:07:57;4.90;;;3.60;;
31310;SDS011;17937;51.508;7.534;2022-11-15T07:10:23;5.20;;;4.20;;
31310;SDS011;17937;51.508;7.534;2022-11-15T07:12:50;8.20;;;4.18;;
31310;SDS011;17937;51.508;7.534;2022-11-15T07:15:17;5.35;;;3.63;;
31310;SDS011;17937;51.508;7.534;2022-11-15T07:17:44;6.85;;;3.90;;
31310;SDS011;17937;51.508;7.534;2022-11-15T07:20:09;5.60;;;3.55;;
31310;SDS011;17937;51.508;7.534;2022-11-15T07:22:36;5.78;;;3.75;;
31310;SDS011;17937;51.508;7.534;2022-11-15T07:25:01;6.05;;;3.30;;
31310;SDS011;17937;51.508;7.534;2022-11-15T07:27:27;6.03;;;3.38;;
31310;SDS011;17937;51.508;7.534;2022-11-15T07:29:53;4.53;;;3.28;;
31310;SDS011;17937;51.508;7.534;2022-11-15T07:32:18;4.55;;;3.08;;
31310;SDS011;17937;51.508;7.534;2022-11-15T07:34:44;4.72;;;3.17;;
31310;SDS011;17937;51.508;7.534;2022-11-15T07:37:11;6.38;;;3.25;;
31310;SDS011;17937;51.508;7.534;2022-11-15T07:39:36;7.50;;;2.63;;
31310;SDS011;17937;51.508;7.534;2022-11-15T07:42:02;4.93;;;2.90;;
31310;SDS011;17937;51.508;7.534;2022-11-15T07:44:46;5.28;;;2.70;;
31310;SDS011;17937;51.508;7.534;2022-11-15T07:47:12;4.22;;;2.95;;
31310;SDS011;17937;51.508;7.534;2022-11-15T07:49:38;4.13;;;2.80;;
31310;SDS011;17937;51.508;7.534;2022-11-15T07:52:03;5.50;;;2.50;;
31310;SDS011;17937;51.508;7.534;2022-11-15T07:54:29;5.68;;;2.78;;
31310;SDS011;17937;51.508;7.534;2022-11-15T07:56:54;3.97;;;2.58;;
31310;SDS011;17937;51.508;7.534;2022-11-15T07:59:20;3.50;;;2.65;;
31310;SDS011;17937;51.508;7.534;2022-11-15T08:01:45;3.50;;;2.60;;
31310;SDS011;17937;51.508;7.534;2022-11-15T08:04:11;2.65;;;2.42;;
31310;SDS011;17937;51.508;7.534;2022-11-15T08:06:37;6.05;;;2.70;;
31310;SDS011;17937;51.508;7.534;2022-11-15T08:09:02;3.15;;;2.20;;
31310;SDS011;17937;51.508;7.534;2022-11-15T08:11:28;4.82;;;2.20;;
31310;SDS011;17937;51.508;7.534;2022-11-15T08:13:54;5.18;;;2.08;;
31310;SDS011;17937;51.508;7.534;2022-11-15T08:16:19;5.25;;;2.38;;
31310;SDS011;17937;51.508;7.534;2022-11-15T08:18:45;5.03;;;2.47;;
31310;SDS011;17937;51.508;7.534;2022-11-15T08:21:11;10.25;;;2.28;;
31310;SDS011;17937;51.508;7.534;2022-11-15T08:23:39;3.10;;;1.83;;
31310;SDS011;17937;51.508;7.534;2022-11-15T08:26:05;2.60;;;1.98;;
31310;SDS011;17937;51.508;7.534;2022-11-15T08:28:31;5.20;;;2.00;;
31310;SDS011;17937;51.508;7.534;2022-11-15T08:30:57;3.63;;;2.00;;
31310;SDS011;17937;51.508;7.534;2022-11-15T08:33:22;4.40;;;2.17;;
31310;SDS011;17937;51.508;7.534;2022-11-15T08:35:49;6.28;;;2.05;;
31310;SDS011;17937;51.508;7.534;2022-11-15T08:38:14;3.20;;;1.75;;
31310;SDS011;17937;51.508;7.534;2022-11-15T08:40:40;2.42;;;1.50;;
31310;SDS011;17937;51.508;7.534;2022-11-15T08:43:06;2.22;;;1.50;;
31310;SDS011;17937;51.508;7.534;2022-11-15T08:45:33;3.35;;;1.70;;
31310;SDS011;17937;51.508;7.534;2022-11-15T08:48:00;2.35;;;1.60;;
31310;SDS011;17937;51.508;7.534;2022-11-15T08:50:27;2.60;;;1.77;;
31310;SDS011;17937;51.508;7.534;2022-11-15T08:52:53;2.10;;;1.45;;
31310;SDS011;17937;51.508;7.534;2022-11-15T08:55:18;4.05;;;1.83;;
31310;SDS011;17937;51.508;7.534;2022-11-15T08:57:44;3.08;;;1.40;;
31310;SDS011;17937;51.508;7.534;2022-11-15T09:00:10;4.43;;;1.50;;
31310;SDS011;17937;51.508;7.534;2022-11-15T09:02:37;3.33;;;1.40;;
31310;SDS011;17937;51.508;7.534;2022-11-15T09:05:04;2.35;;;1.40;;
31310;SDS011;17937;51.508;7.534;2022-11-15T09:07:30;1.95;;;1.55;;
31310;SDS011;17937;51.508;7.534;2022-11-15T09:09:56;2.28;;;1.40;;
31310;SDS011;17937;51.508;7.534;2022-11-15T09:12:22;5.90;;;1.85;;
31310;SDS011;17937;51.508;7.534;2022-11-15T09:14:48;4.82;;;1.60;;
31310;SDS011;17937;51.508;7.534;2022-11-15T09:17:14;4.13;;;1.52;;
31310;SDS011;17937;51.508;7.534;2022-11-15T09:19:39;2.63;;;1.52;;
31310;SDS011;17937;51.508;7.534;2022-11-15T09:22:06;3.20;;;1.63;;
31310;SDS011;17937;51.508;7.534;2022-11-15T09:24:32;1.70;;;1.23;;
31310;SDS011;17937;51.508;7.534;2022-11-15T09:26:58;1.60;;;1.35;;
31310;SDS011;17937;51.508;7.534;2022-11-15T09:29:24;2.90;;;1.38;;
31310;SDS011;17937;51.508;7.534;2022-11-15T09:31:51;5.30;;;1.40;;
31310;SDS011;17937;51.508;7.534;2022-11-15T09:34:17;2.25;;;1.40;;
31310;SDS011;17937;51.508;7.534;2022-11-15T09:36:43;3.70;;;1.50;;
31310;SDS011;17937;51.508;7.534;2022-11-15T09:39:08;3.28;;;1.55;;
31310;SDS011;17937;51.508;7.534;2022-11-15T09:41:38;3.42;;;1.75;;
31310;SDS011;17937;51.508;7.534;2022-11-15T09:49:56;4.03;;;1.30;;
31310;SDS011;17937;51.508;7.534;2022-11-15T09:52:26;2.33;;;1.30;;
31310;SDS011;17937;51.508;7.534;2022-11-15T09:54:52;4.97;;;1.40;;
31310;SDS011;17937;51.508;7.534;2022-11-15T09:57:30;2.25;;;1.20;;
31310;SDS011;17937;51.508;7.534;2022-11-15T10:05:23;4.63;;;1.23;;
31310;SDS011;17937;51.508;7.534;2022-11-15T10:10:25;2.65;;;1.08;;
31310;SDS011;17937;51.508;7.534;2022-11-15T10:13:00;3.92;;;1.40;;
31310;SDS011;17937;51.508;7.534;2022-11-15T10:15:25;1.67;;;1.05;;
31310;SDS011;17937;51.508;7.534;2022-11-15T10:20:29;4.13;;;1.30;;
31310;SDS011;17937;51.508;7.534;2022-11-15T10:23:01;2.88;;;1.27;;
31310;SDS011;17937;51.508;7.534;2022-11-15T10:25:31;3.33;;;1.45;;
31310;SDS011;17937;51.508;7.534;2022-11-15T10:28:00;2.30;;;1.38;;
31310;SDS011;17937;51.508;7.534;2022-11-15T10:30:36;2.35;;;1.00;;
31310;SDS011;17937;51.508;7.534;2022-11-15T10:41:36;1.58;;;1.00;;
31310;SDS011;17937;51.508;7.534;2022-11-15T10:46:45;7.60;;;1.27;;
31310;SDS011;17937;51.508;7.534;2022-11-15T10:51:54;1.60;;;0.88;;
31310;SDS011;17937;51.508;7.534;2022-11-15T10:54:23;2.10;;;1.02;;
31310;SDS011;17937;51.508;7.534;2022-11-15T10:56:54;2.53;;;0.98;;
31310;SDS011;17937;51.508;7.534;2022-11-15T10:59:27;2.45;;;1.30;;
31310;SDS011;17937;51.508;7.534;2022-11-15T11:01:55;2.50;;;1.10;;
31310;SDS011;17937;51.508;7.534;2022-11-15T11:04:21;2.05;;;1.00;;
31310;SDS011;17937;51.508;7.534;2022-11-15T11:12:03;5.22;;;0.98;;
31310;SDS011;17937;51.508;7.534;2022-11-15T11:14:31;1.10;;;1.00;;
31310;SDS011;17937;51.508;7.534;2022-11-15T11:17:05;4.88;;;1.02;;
31310;SDS011;17937;51.508;7.534;2022-11-15T11:22:28;4.07;;;1.27;;
31310;SDS011;17937;51.508;7.534;2022-11-15T11:25:18;4.25;;;1.00;;
31310;SDS011;17937;51.508;7.534;2022-11-15T11:28:10;6.22;;;1.10;;
31310;SDS011;17937;51.508;7.534;2022-11-15T11:33:19;1.97;;;1.03;;
31310;SDS011;17937;51.508;7.534;2022-11-15T11:38:43;5.22;;;1.60;;
31310;SDS011;17937;51.508;7.534;2022-11-15T11:41:24;1.35;;;0.90;;
31310;SDS011;17937;51.508;7.534;2022-11-15T11:46:54;3.85;;;1.02;;
31310;SDS011;17937;51.508;7.534;2022-11-15T11:49:45;2.78;;;1.13;;
31310;SDS011;17937;51.508;7.534;2022-11-15T11:52:22;2.85;;;0.82;;
31310;SDS011;17937;51.508;7.534;2022-11-15T11:55:12;2.78;;;0.80;;
31310;SDS011;17937;51.508;7.534;2022-11-15T11:57:50;1.92;;;0.80;;
31310;SDS011;17937;51.508;7.534;2022-11-15T12:00:31;3.35;;;1.10;;
31310;SDS011;17937;51.508;7.534;2022-11-15T12:05:37;4.97;;;1.10;;
31310;SDS011;17937;51.508;7.534;2022-11-15T12:11:20;1.90;;;0.73;;
31310;SDS011;17937;51.508;7.534;2022-11-15T12:13:48;2.72;;;1.25;;
31310;SDS011;17937;51.508;7.534;2022-11-15T12:16:17;3.10;;;1.08;;
31310;SDS011;17937;51.508;7.534;2022-11-15T12:18:45;3.80;;;0.90;;
31310;SDS011;17937;51.508;7.534;2022-11-15T12:21:32;1.75;;;0.80;;
31310;SDS011;17937;51.508;7.534;2022-11-15T12:24:20;3.35;;;1.15;;
31310;SDS011;17937;51.508;7.534;2022-11-15T12:27:40;1.40;;;0.93;;
31310;SDS011;17937;51.508;7.534;2022-11-15T12:30:14;1.40;;;0.60;;
31310;SDS011;17937;51.508;7.534;2022-11-15T12:32:52;1.73;;;0.90;;
31310;SDS011;17937;51.508;7.534;2022-11-15T12:35:41;3.40;;;0.95;;
31310;SDS011;17937;51.508;7.534;2022-11-15T12:38:11;13.98;;;7.00;;
31310;SDS011;17937;51.508;7.534;2022-11-15T12:40:38;2.88;;;0.95;;
31310;SDS011;17937;51.508;7.534;2022-11-15T12:43:36;3.58;;;1.33;;
31310;SDS011;17937;51.508;7.534;2022-11-15T12:46:05;3.03;;;0.80;;
31310;SDS011;17937;51.508;7.534;2022-11-15T12:51:01;0.50;;;0.50;;
31310;SDS011;17937;51.508;7.534;2022-11-15T12:53:27;3.58;;;0.85;;
31310;SDS011;17937;51.508;7.534;2022-11-15T13:01:08;3.63;;;0.90;;
31310;SDS011;17937;51.508;7.534;2022-11-15T13:03:35;4.03;;;1.00;;
31310;SDS011;17937;51.508;7.534;2022-11-15T13:07:05;4.88;;;1.30;;
31310;SDS011;17937;51.508;7.534;2022-11-15T13:11:53;3.83;;;1.02;;
31310;SDS011;17937;51.508;7.534;2022-11-15T13:19:52;3.53;;;0.90;;
31310;SDS011;17937;51.508;7.534;2022-11-15T13:25:40;2.35;;;0.93;;
31310;SDS011;17937;51.508;7.534;2022-11-15T13:28:33;2.78;;;0.90;;
31310;SDS011;17937;51.508;7.534;2022-11-15T13:33:52;5.43;;;1.02;;
31310;SDS011;17937;51.508;7.534;2022-11-15T13:36:23;3.22;;;0.82;;
31310;SDS011;17937;51.508;7.534;2022-11-15T13:38:59;2.40;;;0.77;;
31310;SDS011;17937;51.508;7.534;2022-11-15T13:41:28;5.72;;;0.93;;
31310;SDS011;17937;51.508;7.534;2022-11-15T13:43:56;2.20;;;0.88;;
31310;SDS011;17937;51.508;7.534;2022-11-15T13:46:24;4.65;;;1.15;;
31310;SDS011;17937;51.508;7.534;2022-11-15T13:48:52;5.30;;;1.15;;
31310;SDS011;17937;51.508;7.534;2022-11-15T13:54:05;3.95;;;1.10;;
31310;SDS011;17937;51.508;7.534;2022-11-15T13:56:37;2.30;;;0.70;;
31310;SDS011;17937;51.508;7.534;2022-11-15T13:59:09;7.10;;;1.30;;
31310;SDS011;17937;51.508;7.534;2022-11-15T14:01:45;5.65;;;1.65;;
31310;SDS011;17937;51.508;7.534;2022-11-15T14:04:11;4.22;;;1.15;;
31310;SDS011;17937;51.508;7.534;2022-11-15T14:06:44;4.78;;;1.00;;
31310;SDS011;17937;51.508;7.534;2022-11-15T14:09:18;4.38;;;1.73;;
31310;SDS011;17937;51.508;7.534;2022-11-15T14:11:55;4.15;;;1.50;;
31310;SDS011;17937;51.508;7.534;2022-11-15T14:14:22;6.38;;;1.48;;
31310;SDS011;17937;51.508;7.534;2022-11-15T14:16:53;5.72;;;1.08;;
31310;SDS011;17937;51.508;7.534;2022-11-15T14:24:33;5.25;;;1.40;;
31310;SDS011;17937;51.508;7.534;2022-11-15T14:27:15;3.63;;;1.27;;
31310;SDS011;17937;51.508;7.534;2022-11-15T14:29:42;7.28;;;1.55;;
31310;SDS011;17937;51.508;7.534;2022-11-15T14:32:20;6.78;;;1.50;;
31310;SDS011;17937;51.508;7.534;2022-11-15T14:34:49;3.97;;;1.10;;
31310;SDS011;17937;51.508;7.534;2022-11-15T14:37:23;5.38;;;1.90;;
31310;SDS011;17937;51.508;7.534;2022-11-15T14:39:51;5.43;;;1.40;;
31310;SDS011;17937;51.508;7.534;2022-11-15T14:42:17;6.10;;;1.95;;
31310;SDS011;17937;51.508;7.534;2022-11-15T14:44:43;3.00;;;1.40;;
31310;SDS011;17937;51.508;7.534;2022-11-15T14:47:09;6.15;;;1.80;;
31310;SDS011;17937;51.508;7.534;2022-11-15T14:49:35;8.10;;;1.95;;
31310;SDS011;17937;51.508;7.534;2022-11-15T14:52:00;3.75;;;1.70;;
31310;SDS011;17937;51.508;7.534;2022-11-15T14:54:26;4.25;;;1.48;;
31310;SDS011;17937;51.508;7.534;2022-11-15T14:56:51;4.90;;;1.92;;
31310;SDS011;17937;51.508;7.534;2022-11-15T14:59:17;6.28;;;2.05;;
31310;SDS011;17937;51.508;7.534;2022-11-15T15:01:42;5.60;;;1.60;;
31310;SDS011;17937;51.508;7.534;2022-11-15T15:04:09;3.70;;;1.50;;
31310;SDS011;17937;51.508;7.534;2022-11-15T15:06:36;7.30;;;1.63;;
31310;SDS011;17937;51.508;7.534;2022-11-15T15:09:01;3.80;;;1.75;;
31310;SDS011;17937;51.508;7.534;2022-11-15T15:11:29;3.17;;;1.63;;
31310;SDS011;17937;51.508;7.534;2022-11-15T15:13:56;4.00;;;1.55;;
31310;SDS011;17937;51.508;7.534;2022-11-15T15:16:25;6.43;;;1.40;;
31310;SDS011;17937;51.508;7.534;2022-11-15T15:18:51;7.43;;;1.60;;
31310;SDS011;17937;51.508;7.534;2022-11-15T15:21:18;7.13;;;2.20;;
31310;SDS011;17937;51.508;7.534;2022-11-15T15:23:46;1.75;;;1.20;;
31310;SDS011;17937;51.508;7.534;2022-11-15T15:26:12;2.95;;;1.80;;
31310;SDS011;17937;51.508;7.534;2022-11-15T15:28:38;4.43;;;1.55;;
31310;SDS011;17937;51.508;7.534;2022-11-15T15:31:04;7.90;;;1.85;;
31310;SDS011;17937;51.508;7.534;2022-11-15T15:33:30;3.50;;;1.75;;
31310;SDS011;17937;51.508;7.534;2022-11-15T15:35:56;2.85;;;1.50;;
31310;SDS011;17937;51.508;7.534;2022-11-15T15:38:22;5.93;;;1.70;;
31310;SDS011;17937;51.508;7.534;2022-11-15T15:40:47;3.78;;;1.80;;
31310;SDS011;17937;51.508;7.534;2022-11-15T15:43:13;7.90;;;2.00;;
31310;SDS011;17937;51.508;7.534;2022-11-15T15:45:39;5.43;;;1.88;;
31310;SDS011;17937;51.508;7.534;2022-11-15T15:48:13;5.88;;;1.75;;
31310;SDS011;17937;51.508;7.534;2022-11-15T15:50:40;5.55;;;2.03;;
31310;SDS011;17937;51.508;7.534;2022-11-15T15:53:07;3.97;;;1.98;;
31310;SDS011;17937;51.508;7.534;2022-11-15T15:55:35;3.25;;;1.70;;
31310;SDS011;17937;51.508;7.534;2022-11-15T15:58:01;9.32;;;2.30;;
31310;SDS011;17937;51.508;7.534;2022-11-15T16:00:27;4.80;;;1.88;;
31310;SDS011;17937;51.508;7.534;2022-11-15T16:02:53;8.55;;;1.92;;
31310;SDS011;17937;51.508;7.534;2022-11-15T16:05:19;3.92;;;1.83;;
31310;SDS011;17937;51.508;7.534;2022-11-15T16:07:45;3.72;;;1.73;;
31310;SDS011;17937;51.508;7.534;2022-11-15T16:12:50;2.10;;;1.48;;
31310;SDS011;17937;51.508;7.534;2022-11-15T16:15:17;3.80;;;1.70;;
31310;SDS011;17937;51.508;7.534;2022-11-15T16:17:45;4.68;;;1.88;;
31310;SDS011;17937;51.508;7.534;2022-11-15T16:20:26;4.55;;;1.88;;
31310;SDS011;17937;51.508;7.534;2022-11-15T16:23:08;3.88;;;1.42;;
31310;SDS011;17937;51.508;7.534;2022-11-15T16:25:50;3.00;;;1.70;;
31310;SDS011;17937;51.508;7.534;2022-11-15T16:28:27;3.90;;;1.85;;
31310;SDS011;17937;51.508;7.534;2022-11-15T16:33:35;3.20;;;1.77;;
31310;SDS011;17937;51.508;7.534;2022-11-15T16:36:02;3.38;;;1.58;;
31310;SDS011;17937;51.508;7.534;2022-11-15T16:38:28;3.17;;;1.73;;
31310;SDS011;17937;51.508;7.534;2022-11-15T16:40:54;3.47;;;1.48;;
31310;SDS011;17937;51.508;7.534;2022-11-15T16:43:20;4.63;;;1.65;;
31310;SDS011;17937;51.508;7.534;2022-11-15T16:45:45;3.70;;;1.63;;
31310;SDS011;17937;51.508;7.534;2022-11-15T16:48:21;1.88;;;1.67;;
31310;SDS011;17937;51.508;7.534;2022-11-15T16:50:49;3.60;;;1.55;;
31310;SDS011;17937;51.508;7.534;2022-11-15T16:53:15;4.07;;;1.90;;
31310;SDS011;17937;51.508;7.534;2022-11-15T16:55:41;2.78;;;1.38;;